sensor_id;sensor_type;location;lat;lon;timestamp;temperature;humidity
10083;DHT22;5080;48.528;8.078;2024-03-02T00:00:50;5.90;99.90
10083;DHT22;5080;48.528;8.078;2024-03-02T00:03:18;5.90;99.90
10083;DHT22;5080;48.528;8.078;2024-03-02T00:05:49;5.90;99.90
10083;DHT22;5080;48.528;8.078;2024-03-02T00:08:22;5.90;99.90
10083;DHT22;5080;48.528;8.078;2024-03-02T00:10:51;5.80;99.90
10083;DHT22;5080;48.528;8.078;2024-03-02T00:13:20;5.80;99.90
10083;DHT22;5080;48.528;8.078;2024-03-02T00:15:51;5.80;99.90
10083;DHT22;5080;48.528;8.078;2024-03-02T00:18:20;5.80;99.90
10083;DHT22;5080;48.528;8.078;2024-03-02T00:20:47;5.70;99.90
10083;DHT22;5080;48.528;8.078;2024-03-02T00:23:15;5.70;99.90
10083;DHT22;5080;48.528;8.078;2024-03-02T00:25:44;5.70;99.90
10083;DHT22;5080;48.528;8.078;2024-03-02T00:28:17;5.70;99.90
10083;DHT22;5080;48.528;8.078;2024-03-02T00:31:01;5.60;99.90
10083;DHT22;5080;48.528;8.078;2024-03-02T00:33:31;5.70;99.90
10083;DHT22;5080;48.528;8.078;2024-03-02T00:35:58;5.60;99.90
10083;DHT22;5080;48.528;8.078;2024-03-02T00:38:26;5.70;99.90
10083;DHT22;5080;48.528;8.078;2024-03-02T00:40:54;5.80;99.90
10083;DHT22;5080;48.528;8.078;2024-03-02T00:43:45;5.90;99.90
10083;DHT22;5080;48.528;8.078;2024-03-02T00:46:13;5.90;99.90
10083;DHT22;5080;48.528;8.078;2024-03-02T00:48:48;5.90;99.90
10083;DHT22;5080;48.528;8.078;2024-03-02T00:51:14;5.90;99.90
10083;DHT22;5080;48.528;8.078;2024-03-02T00:53:41;5.80;99.90
10083;DHT22;5080;48.528;8.078;2024-03-02T00:56:10;5.90;99.90
10083;DHT22;5080;48.528;8.078;2024-03-02T00:58:37;5.80;99.90
10083;DHT22;5080;48.528;8.078;2024-03-02T01:01:05;5.80;99.90
10083;DHT22;5080;48.528;8.078;2024-03-02T01:03:32;5.80;99.90
10083;DHT22;5080;48.528;8.078;2024-03-02T01:05:59;5.70;99.90
10083;DHT22;5080;48.528;8.078;2024-03-02T01:08:26;5.70;99.90
10083;DHT22;5080;48.528;8.078;2024-03-02T01:10:53;5.70;99.90
10083;DHT22;5080;48.528;8.078;2024-03-02T01:13:21;5.60;99.90
10083;DHT22;5080;48.528;8.078;2024-03-02T01:15:48;5.60;99.90
10083;DHT22;5080;48.528;8.078;2024-03-02T01:18:17;5.70;99.90
10083;DHT22;5080;48.528;8.078;2024-03-02T01:20:43;5.50;99.90
10083;DHT22;5080;48.528;8.078;2024-03-02T01:23:10;5.50;99.90
10083;DHT22;5080;48.528;8.078;2024-03-02T01:25:37;5.50;99.90
10083;DHT22;5080;48.528;8.078;2024-03-02T01:28:04;5.40;99.90
10083;DHT22;5080;48.528;8.078;2024-03-02T01:30:32;5.40;99.90
10083;DHT22;5080;48.528;8.078;2024-03-02T01:32:58;5.40;99.90
10083;DHT22;5080;48.528;8.078;2024-03-02T01:35:27;5.40;99.90
10083;DHT22;5080;48.528;8.078;2024-03-02T01:37:54;5.40;99.90
10083;DHT22;5080;48.528;8.078;2024-03-02T01:40:22;5.40;99.90
10083;DHT22;5080;48.528;8.078;2024-03-02T01:42:52;5.40;99.90
10083;DHT22;5080;48.528;8.078;2024-03-02T01:45:19;5.40;99.90
10083;DHT22;5080;48.528;8.078;2024-03-02T01:47:46;5.40;99.90
10083;DHT22;5080;48.528;8.078;2024-03-02T01:50:13;5.40;99.90
10083;DHT22;5080;48.528;8.078;2024-03-02T01:52:41;5.40;99.90
10083;DHT22;5080;48.528;8.078;2024-03-02T01:55:09;5.40;99.90
10083;DHT22;5080;48.528;8.078;2024-03-02T01:57:36;5.40;99.90
10083;DHT22;5080;48.528;8.078;2024-03-02T02:00:04;5.40;99.90
10083;DHT22;5080;48.528;8.078;2024-03-02T02:02:31;5.40;99.90
10083;DHT22;5080;48.528;8.078;2024-03-02T02:04:57;5.40;99.90
10083;DHT22;5080;48.528;8.078;2024-03-02T02:07:24;5.40;99.90
10083;DHT22;5080;48.528;8.078;2024-03-02T02:09:52;5.40;99.90
10083;DHT22;5080;48.528;8.078;2024-03-02T02:12:19;5.30;99.90
10083;DHT22;5080;48.528;8.078;2024-03-02T02:14:49;5.30;99.90
10083;DHT22;5080;48.528;8.078;2024-03-02T02:17:16;5.20;99.90
10083;DHT22;5080;48.528;8.078;2024-03-02T02:19:43;5.30;99.90
10083;DHT22;5080;48.528;8.078;2024-03-02T02:22:11;5.20;99.90
10083;DHT22;5080;48.528;8.078;2024-03-02T02:24:40;5.20;99.90
10083;DHT22;5080;48.528;8.078;2024-03-02T02:27:06;5.20;99.90
10083;DHT22;5080;48.528;8.078;2024-03-02T02:29:34;5.30;99.90
10083;DHT22;5080;48.528;8.078;2024-03-02T02:32:00;5.30;99.90
10083;DHT22;5080;48.528;8.078;2024-03-02T02:34:27;5.30;99.90
10083;DHT22;5080;48.528;8.078;2024-03-02T02:36:54;5.20;99.90
10083;DHT22;5080;48.528;8.078;2024-03-02T02:39:23;5.20;99.90
10083;DHT22;5080;48.528;8.078;2024-03-02T02:41:49;5.30;99.90
10083;DHT22;5080;48.528;8.078;2024-03-02T02:44:19;5.30;99.90
10083;DHT22;5080;48.528;8.078;2024-03-02T02:46:47;5.30;99.90
10083;DHT22;5080;48.528;8.078;2024-03-02T02:49:13;5.30;99.90
10083;DHT22;5080;48.528;8.078;2024-03-02T02:51:40;5.40;99.90
10083;DHT22;5080;48.528;8.078;2024-03-02T02:54:07;5.30;99.90
10083;DHT22;5080;48.528;8.078;2024-03-02T02:56:35;5.30;99.90
10083;DHT22;5080;48.528;8.078;2024-03-02T02:59:02;5.30;99.90
10083;DHT22;5080;48.528;8.078;2024-03-02T03:01:29;5.20;99.90
10083;DHT22;5080;48.528;8.078;2024-03-02T03:03:55;5.20;99.90
10083;DHT22;5080;48.528;8.078;2024-03-02T03:06:22;5.20;99.90
10083;DHT22;5080;48.528;8.078;2024-03-02T03:08:49;5.20;99.90
10083;DHT22;5080;48.528;8.078;2024-03-02T03:11:16;5.20;99.90
10083;DHT22;5080;48.528;8.078;2024-03-02T03:13:44;5.20;99.90
10083;DHT22;5080;48.528;8.078;2024-03-02T03:16:11;5.20;99.90
10083;DHT22;5080;48.528;8.078;2024-03-02T03:18:37;5.10;99.90
10083;DHT22;5080;48.528;8.078;2024-03-02T03:21:05;5.10;99.90
10083;DHT22;5080;48.528;8.078;2024-03-02T03:23:31;5.10;99.90
10083;DHT22;5080;48.528;8.078;2024-03-02T03:25:58;5.10;99.90
10083;DHT22;5080;48.528;8.078;2024-03-02T03:28:25;5.10;99.90
10083;DHT22;5080;48.528;8.078;2024-03-02T03:30:53;5.10;99.90
10083;DHT22;5080;48.528;8.078;2024-03-02T03:33:20;5.00;99.90
10083;DHT22;5080;48.528;8.078;2024-03-02T03:35:46;5.00;99.90
10083;DHT22;5080;48.528;8.078;2024-03-02T03:38:13;5.00;99.90
10083;DHT22;5080;48.528;8.078;2024-03-02T03:40:40;5.00;99.90
10083;DHT22;5080;48.528;8.078;2024-03-02T03:43:07;5.00;99.90
10083;DHT22;5080;48.528;8.078;2024-03-02T03:45:34;4.90;99.90
10083;DHT22;5080;48.528;8.078;2024-03-02T03:48:02;4.90;99.90
10083;DHT22;5080;48.528;8.078;2024-03-02T03:50:29;4.90;99.90
10083;DHT22;5080;48.528;8.078;2024-03-02T03:52:55;4.90;99.90
10083;DHT22;5080;48.528;8.078;2024-03-02T03:55:22;5.00;99.90
10083;DHT22;5080;48.528;8.078;2024-03-02T03:57:49;5.00;99.90
10083;DHT22;5080;48.528;8.078;2024-03-02T04:00:16;5.00;99.90
10083;DHT22;5080;48.528;8.078;2024-03-02T04:02:43;5.00;99.90
10083;DHT22;5080;48.528;8.078;2024-03-02T04:05:11;5.10;99.90
10083;DHT22;5080;48.528;8.078;2024-03-02T04:07:38;5.20;99.90
10083;DHT22;5080;48.528;8.078;2024-03-02T04:10:09;5.20;99.90
10083;DHT22;5080;48.528;8.078;2024-03-02T04:12:38;5.20;99.90
10083;DHT22;5080;48.528;8.078;2024-03-02T04:15:06;5.10;99.90
10083;DHT22;5080;48.528;8.078;2024-03-02T04:17:33;5.10;99.90
10083;DHT22;5080;48.528;8.078;2024-03-02T04:20:01;5.00;99.90
10083;DHT22;5080;48.528;8.078;2024-03-02T04:22:33;5.00;99.90
10083;DHT22;5080;48.528;8.078;2024-03-02T04:25:00;5.00;99.90
10083;DHT22;5080;48.528;8.078;2024-03-02T04:27:27;5.10;99.90
10083;DHT22;5080;48.528;8.078;2024-03-02T04:29:53;5.10;99.90
10083;DHT22;5080;48.528;8.078;2024-03-02T04:32:20;5.10;99.90
10083;DHT22;5080;48.528;8.078;2024-03-02T04:34:47;5.10;99.90
10083;DHT22;5080;48.528;8.078;2024-03-02T04:37:14;5.10;99.90
10083;DHT22;5080;48.528;8.078;2024-03-02T04:39:42;5.10;99.90
10083;DHT22;5080;48.528;8.078;2024-03-02T04:42:09;5.10;99.90
10083;DHT22;5080;48.528;8.078;2024-03-02T04:44:35;5.10;99.90
10083;DHT22;5080;48.528;8.078;2024-03-02T04:47:03;5.10;99.90
10083;DHT22;5080;48.528;8.078;2024-03-02T04:49:30;5.10;99.90
10083;DHT22;5080;48.528;8.078;2024-03-02T04:51:57;5.10;99.90
10083;DHT22;5080;48.528;8.078;2024-03-02T04:54:24;5.00;99.90
10083;DHT22;5080;48.528;8.078;2024-03-02T04:56:52;5.00;99.90
10083;DHT22;5080;48.528;8.078;2024-03-02T04:59:19;5.00;99.90
10083;DHT22;5080;48.528;8.078;2024-03-02T05:01:45;5.00;99.90
10083;DHT22;5080;48.528;8.078;2024-03-02T05:04:12;5.00;99.90
10083;DHT22;5080;48.528;8.078;2024-03-02T05:06:39;5.10;99.90
10083;DHT22;5080;48.528;8.078;2024-03-02T05:09:06;5.10;99.90
10083;DHT22;5080;48.528;8.078;2024-03-02T05:11:33;5.10;99.90
10083;DHT22;5080;48.528;8.078;2024-03-02T05:14:26;5.10;99.90
10083;DHT22;5080;48.528;8.078;2024-03-02T05:16:52;5.00;99.90
10083;DHT22;5080;48.528;8.078;2024-03-02T05:19:19;5.00;99.90
10083;DHT22;5080;48.528;8.078;2024-03-02T05:21:46;5.00;99.90
10083;DHT22;5080;48.528;8.078;2024-03-02T05:24:14;4.90;99.90
10083;DHT22;5080;48.528;8.078;2024-03-02T05:26:40;4.90;99.90
10083;DHT22;5080;48.528;8.078;2024-03-02T05:29:07;4.90;99.90
10083;DHT22;5080;48.528;8.078;2024-03-02T05:31:35;4.90;99.90
10083;DHT22;5080;48.528;8.078;2024-03-02T05:34:02;4.90;99.90
10083;DHT22;5080;48.528;8.078;2024-03-02T05:36:31;5.00;99.90
10083;DHT22;5080;48.528;8.078;2024-03-02T05:38:57;4.90;99.90
10083;DHT22;5080;48.528;8.078;2024-03-02T05:41:24;4.90;99.90
10083;DHT22;5080;48.528;8.078;2024-03-02T05:43:51;4.90;99.90
10083;DHT22;5080;48.528;8.078;2024-03-02T05:46:17;4.80;99.90
10083;DHT22;5080;48.528;8.078;2024-03-02T05:48:46;4.80;99.90
10083;DHT22;5080;48.528;8.078;2024-03-02T05:51:12;4.80;99.90
10083;DHT22;5080;48.528;8.078;2024-03-02T05:53:39;4.80;99.90
10083;DHT22;5080;48.528;8.078;2024-03-02T05:56:06;4.80;99.90
10083;DHT22;5080;48.528;8.078;2024-03-02T05:58:34;4.90;99.90
10083;DHT22;5080;48.528;8.078;2024-03-02T06:01:13;4.90;99.90
10083;DHT22;5080;48.528;8.078;2024-03-02T06:03:40;4.90;99.90
10083;DHT22;5080;48.528;8.078;2024-03-02T06:06:08;5.00;99.90
10083;DHT22;5080;48.528;8.078;2024-03-02T06:08:35;5.00;99.90
10083;DHT22;5080;48.528;8.078;2024-03-02T06:11:01;5.00;99.90
10083;DHT22;5080;48.528;8.078;2024-03-02T06:13:28;5.10;99.90
10083;DHT22;5080;48.528;8.078;2024-03-02T06:15:55;5.20;99.90
10083;DHT22;5080;48.528;8.078;2024-03-02T06:18:22;5.20;99.90
10083;DHT22;5080;48.528;8.078;2024-03-02T06:20:49;5.30;99.90
10083;DHT22;5080;48.528;8.078;2024-03-02T06:23:17;5.30;99.90
10083;DHT22;5080;48.528;8.078;2024-03-02T06:25:44;5.30;99.90
10083;DHT22;5080;48.528;8.078;2024-03-02T06:28:11;5.40;99.90
10083;DHT22;5080;48.528;8.078;2024-03-02T06:30:41;5.40;99.90
10083;DHT22;5080;48.528;8.078;2024-03-02T06:33:07;5.40;99.90
10083;DHT22;5080;48.528;8.078;2024-03-02T06:35:33;5.50;99.90
10083;DHT22;5080;48.528;8.078;2024-03-02T06:38:00;5.60;99.90
10083;DHT22;5080;48.528;8.078;2024-03-02T06:40:28;5.60;99.90
10083;DHT22;5080;48.528;8.078;2024-03-02T06:42:55;5.60;99.90
10083;DHT22;5080;48.528;8.078;2024-03-02T06:45:22;5.60;99.90
10083;DHT22;5080;48.528;8.078;2024-03-02T06:47:49;5.50;99.90
10083;DHT22;5080;48.528;8.078;2024-03-02T06:50:16;5.50;99.90
10083;DHT22;5080;48.528;8.078;2024-03-02T06:52:43;5.50;99.90
10083;DHT22;5080;48.528;8.078;2024-03-02T06:55:09;5.50;99.90
10083;DHT22;5080;48.528;8.078;2024-03-02T06:57:37;5.50;99.90
10083;DHT22;5080;48.528;8.078;2024-03-02T07:00:05;5.60;99.90
10083;DHT22;5080;48.528;8.078;2024-03-02T07:02:34;5.60;99.90
10083;DHT22;5080;48.528;8.078;2024-03-02T07:05:02;5.60;99.90
10083;DHT22;5080;48.528;8.078;2024-03-02T07:07:29;5.70;99.90
10083;DHT22;5080;48.528;8.078;2024-03-02T07:09:56;5.80;99.90
10083;DHT22;5080;48.528;8.078;2024-03-02T07:12:22;5.90;99.90
10083;DHT22;5080;48.528;8.078;2024-03-02T07:14:50;6.00;99.90
10083;DHT22;5080;48.528;8.078;2024-03-02T07:17:33;6.10;99.90
10083;DHT22;5080;48.528;8.078;2024-03-02T07:20:00;6.20;99.90
10083;DHT22;5080;48.528;8.078;2024-03-02T07:22:27;6.30;99.90
10083;DHT22;5080;48.528;8.078;2024-03-02T07:24:54;6.40;99.90
10083;DHT22;5080;48.528;8.078;2024-03-02T07:27:21;6.50;99.90
10083;DHT22;5080;48.528;8.078;2024-03-02T07:29:47;6.60;99.90
10083;DHT22;5080;48.528;8.078;2024-03-02T07:32:16;6.70;99.90
10083;DHT22;5080;48.528;8.078;2024-03-02T07:34:42;6.80;99.90
10083;DHT22;5080;48.528;8.078;2024-03-02T07:37:09;6.90;99.90
10083;DHT22;5080;48.528;8.078;2024-03-02T07:39:36;7.10;99.90
10083;DHT22;5080;48.528;8.078;2024-03-02T07:42:02;7.10;99.90
10083;DHT22;5080;48.528;8.078;2024-03-02T07:44:29;7.30;99.90
10083;DHT22;5080;48.528;8.078;2024-03-02T07:46:56;7.40;99.90
10083;DHT22;5080;48.528;8.078;2024-03-02T07:49:24;7.40;99.90
10083;DHT22;5080;48.528;8.078;2024-03-02T07:51:51;7.50;99.90
10083;DHT22;5080;48.528;8.078;2024-03-02T07:54:17;7.60;99.90
10083;DHT22;5080;48.528;8.078;2024-03-02T07:56:45;7.70;99.90
10083;DHT22;5080;48.528;8.078;2024-03-02T07:59:12;7.70;99.90
10083;DHT22;5080;48.528;8.078;2024-03-02T08:01:39;7.80;99.90
10083;DHT22;5080;48.528;8.078;2024-03-02T08:04:06;8.00;99.90
10083;DHT22;5080;48.528;8.078;2024-03-02T08:06:34;8.10;99.90
10083;DHT22;5080;48.528;8.078;2024-03-02T08:09:01;8.30;99.90
10083;DHT22;5080;48.528;8.078;2024-03-02T08:11:30;8.50;99.90
10083;DHT22;5080;48.528;8.078;2024-03-02T08:13:57;8.60;99.90
10083;DHT22;5080;48.528;8.078;2024-03-02T08:16:24;8.80;99.90
10083;DHT22;5080;48.528;8.078;2024-03-02T08:18:51;9.00;99.90
10083;DHT22;5080;48.528;8.078;2024-03-02T08:21:18;9.20;99.90
10083;DHT22;5080;48.528;8.078;2024-03-02T08:23:46;9.40;99.90
10083;DHT22;5080;48.528;8.078;2024-03-02T08:26:13;9.50;99.90
10083;DHT22;5080;48.528;8.078;2024-03-02T08:28:40;9.70;99.90
10083;DHT22;5080;48.528;8.078;2024-03-02T08:31:07;9.90;99.90
10083;DHT22;5080;48.528;8.078;2024-03-02T08:33:33;10.00;99.90
10083;DHT22;5080;48.528;8.078;2024-03-02T08:36:01;10.20;99.90
10083;DHT22;5080;48.528;8.078;2024-03-02T08:38:28;10.30;99.90
10083;DHT22;5080;48.528;8.078;2024-03-02T08:40:56;10.40;99.90
10083;DHT22;5080;48.528;8.078;2024-03-02T08:43:23;10.60;99.90
10083;DHT22;5080;48.528;8.078;2024-03-02T08:45:50;10.70;99.90
10083;DHT22;5080;48.528;8.078;2024-03-02T08:48:17;10.90;99.90
10083;DHT22;5080;48.528;8.078;2024-03-02T08:50:44;11.10;99.90
10083;DHT22;5080;48.528;8.078;2024-03-02T08:53:10;11.30;99.90
10083;DHT22;5080;48.528;8.078;2024-03-02T08:55:37;11.50;99.90
10083;DHT22;5080;48.528;8.078;2024-03-02T08:58:06;11.60;99.90
10083;DHT22;5080;48.528;8.078;2024-03-02T09:00:33;11.80;99.90
10083;DHT22;5080;48.528;8.078;2024-03-02T09:03:00;12.00;99.90
10083;DHT22;5080;48.528;8.078;2024-03-02T09:05:28;12.20;99.90
10083;DHT22;5080;48.528;8.078;2024-03-02T09:07:55;12.40;99.90
10083;DHT22;5080;48.528;8.078;2024-03-02T09:10:21;12.50;99.90
10083;DHT22;5080;48.528;8.078;2024-03-02T09:12:48;12.70;99.90
10083;DHT22;5080;48.528;8.078;2024-03-02T09:15:16;12.90;99.90
10083;DHT22;5080;48.528;8.078;2024-03-02T09:17:43;13.10;99.90
10083;DHT22;5080;48.528;8.078;2024-03-02T09:20:11;13.40;99.90
10083;DHT22;5080;48.528;8.078;2024-03-02T09:22:39;13.60;99.90
10083;DHT22;5080;48.528;8.078;2024-03-02T09:25:07;13.80;99.90
10083;DHT22;5080;48.528;8.078;2024-03-02T09:27:36;13.90;99.90
10083;DHT22;5080;48.528;8.078;2024-03-02T09:30:04;14.10;99.90
10083;DHT22;5080;48.528;8.078;2024-03-02T09:32:32;14.30;99.90
10083;DHT22;5080;48.528;8.078;2024-03-02T09:34:59;14.60;99.90
10083;DHT22;5080;48.528;8.078;2024-03-02T09:37:26;14.80;99.90
10083;DHT22;5080;48.528;8.078;2024-03-02T09:39:54;15.00;99.90
10083;DHT22;5080;48.528;8.078;2024-03-02T09:42:21;15.10;99.90
10083;DHT22;5080;48.528;8.078;2024-03-02T09:44:48;15.20;99.90
10083;DHT22;5080;48.528;8.078;2024-03-02T09:47:15;15.20;99.90
10083;DHT22;5080;48.528;8.078;2024-03-02T09:49:43;15.00;99.90
10083;DHT22;5080;48.528;8.078;2024-03-02T09:52:10;15.00;99.90
10083;DHT22;5080;48.528;8.078;2024-03-02T09:54:37;15.10;99.90
10083;DHT22;5080;48.528;8.078;2024-03-02T09:57:04;15.30;99.90
10083;DHT22;5080;48.528;8.078;2024-03-02T09:59:31;15.50;99.90
10083;DHT22;5080;48.528;8.078;2024-03-02T10:01:59;15.60;99.90
10083;DHT22;5080;48.528;8.078;2024-03-02T10:04:26;15.70;99.90
10083;DHT22;5080;48.528;8.078;2024-03-02T10:07:10;15.70;99.90
10083;DHT22;5080;48.528;8.078;2024-03-02T10:09:37;15.80;99.90
10083;DHT22;5080;48.528;8.078;2024-03-02T10:12:05;15.90;99.90
10083;DHT22;5080;48.528;8.078;2024-03-02T10:14:32;16.10;99.90
10083;DHT22;5080;48.528;8.078;2024-03-02T10:17:02;16.20;99.90
10083;DHT22;5080;48.528;8.078;2024-03-02T10:19:29;16.30;99.90
10083;DHT22;5080;48.528;8.078;2024-03-02T10:22:02;16.40;99.90
10083;DHT22;5080;48.528;8.078;2024-03-02T10:24:36;16.40;99.90
10083;DHT22;5080;48.528;8.078;2024-03-02T10:27:07;16.40;99.90
10083;DHT22;5080;48.528;8.078;2024-03-02T10:29:37;16.40;99.90
10083;DHT22;5080;48.528;8.078;2024-03-02T10:32:05;16.50;99.90
10083;DHT22;5080;48.528;8.078;2024-03-02T10:34:32;16.70;99.90
10083;DHT22;5080;48.528;8.078;2024-03-02T10:36:59;16.60;99.90
10083;DHT22;5080;48.528;8.078;2024-03-02T10:39:27;16.60;99.90
10083;DHT22;5080;48.528;8.078;2024-03-02T10:41:56;16.70;99.90
10083;DHT22;5080;48.528;8.078;2024-03-02T10:44:23;16.80;99.90
10083;DHT22;5080;48.528;8.078;2024-03-02T10:46:50;16.80;99.90
10083;DHT22;5080;48.528;8.078;2024-03-02T10:49:19;16.90;99.90
10083;DHT22;5080;48.528;8.078;2024-03-02T10:51:47;17.10;99.90
10083;DHT22;5080;48.528;8.078;2024-03-02T10:54:14;17.10;99.90
10083;DHT22;5080;48.528;8.078;2024-03-02T10:56:42;17.20;99.90
10083;DHT22;5080;48.528;8.078;2024-03-02T10:59:17;17.20;99.90
10083;DHT22;5080;48.528;8.078;2024-03-02T11:01:48;17.10;99.90
10083;DHT22;5080;48.528;8.078;2024-03-02T11:04:16;17.10;99.90
10083;DHT22;5080;48.528;8.078;2024-03-02T11:06:48;17.10;99.90
10083;DHT22;5080;48.528;8.078;2024-03-02T11:09:17;17.00;99.90
10083;DHT22;5080;48.528;8.078;2024-03-02T11:11:45;17.00;99.90
10083;DHT22;5080;48.528;8.078;2024-03-02T11:14:17;17.00;99.90
10083;DHT22;5080;48.528;8.078;2024-03-02T11:16:45;16.90;99.90
10083;DHT22;5080;48.528;8.078;2024-03-02T11:19:13;17.00;99.90
10083;DHT22;5080;48.528;8.078;2024-03-02T11:21:41;17.00;99.90
10083;DHT22;5080;48.528;8.078;2024-03-02T11:24:28;17.00;99.90
10083;DHT22;5080;48.528;8.078;2024-03-02T11:26:58;17.20;99.90
10083;DHT22;5080;48.528;8.078;2024-03-02T11:29:44;17.30;99.90
10083;DHT22;5080;48.528;8.078;2024-03-02T11:32:16;17.40;99.90
10083;DHT22;5080;48.528;8.078;2024-03-02T11:34:45;17.40;99.90
10083;DHT22;5080;48.528;8.078;2024-03-02T11:37:13;17.40;99.90
10083;DHT22;5080;48.528;8.078;2024-03-02T11:39:40;17.30;99.90
10083;DHT22;5080;48.528;8.078;2024-03-02T11:42:08;17.20;99.90
10083;DHT22;5080;48.528;8.078;2024-03-02T11:44:35;17.00;99.90
10083;DHT22;5080;48.528;8.078;2024-03-02T11:47:06;16.90;99.90
10083;DHT22;5080;48.528;8.078;2024-03-02T11:49:37;16.70;99.90
10083;DHT22;5080;48.528;8.078;2024-03-02T11:52:06;16.80;99.90
10083;DHT22;5080;48.528;8.078;2024-03-02T11:54:33;17.00;99.90
10083;DHT22;5080;48.528;8.078;2024-03-02T11:57:02;17.00;99.90
10083;DHT22;5080;48.528;8.078;2024-03-02T11:59:29;17.10;99.90
10083;DHT22;5080;48.528;8.078;2024-03-02T12:01:56;17.30;99.90
10083;DHT22;5080;48.528;8.078;2024-03-02T12:04:25;17.40;99.90
10083;DHT22;5080;48.528;8.078;2024-03-02T12:06:54;17.30;99.90
10083;DHT22;5080;48.528;8.078;2024-03-02T12:09:21;17.20;99.90
10083;DHT22;5080;48.528;8.078;2024-03-02T12:11:50;17.20;99.90
10083;DHT22;5080;48.528;8.078;2024-03-02T12:14:27;17.30;99.90
10083;DHT22;5080;48.528;8.078;2024-03-02T12:16:54;17.30;99.90
10083;DHT22;5080;48.528;8.078;2024-03-02T12:19:26;17.30;99.90
10083;DHT22;5080;48.528;8.078;2024-03-02T12:21:55;17.30;99.90
10083;DHT22;5080;48.528;8.078;2024-03-02T12:24:23;17.40;99.90
10083;DHT22;5080;48.528;8.078;2024-03-02T12:26:50;17.40;99.90
10083;DHT22;5080;48.528;8.078;2024-03-02T12:29:18;17.40;99.90
10083;DHT22;5080;48.528;8.078;2024-03-02T12:31:45;17.50;99.90
10083;DHT22;5080;48.528;8.078;2024-03-02T12:34:15;17.60;99.90
10083;DHT22;5080;48.528;8.078;2024-03-02T12:36:44;17.60;99.90
10083;DHT22;5080;48.528;8.078;2024-03-02T12:39:13;17.70;99.90
10083;DHT22;5080;48.528;8.078;2024-03-02T12:41:40;17.70;99.90
10083;DHT22;5080;48.528;8.078;2024-03-02T12:44:07;17.80;99.90
10083;DHT22;5080;48.528;8.078;2024-03-02T12:46:34;17.80;99.90
10083;DHT22;5080;48.528;8.078;2024-03-02T12:49:07;17.80;99.90
10083;DHT22;5080;48.528;8.078;2024-03-02T12:51:35;17.80;99.90
10083;DHT22;5080;48.528;8.078;2024-03-02T12:54:03;17.80;99.90
10083;DHT22;5080;48.528;8.078;2024-03-02T12:56:31;17.70;99.90
10083;DHT22;5080;48.528;8.078;2024-03-02T12:58:59;17.70;99.90
10083;DHT22;5080;48.528;8.078;2024-03-02T13:01:26;17.70;99.90
10083;DHT22;5080;48.528;8.078;2024-03-02T13:03:53;17.80;99.90
10083;DHT22;5080;48.528;8.078;2024-03-02T13:06:21;17.80;99.90
10083;DHT22;5080;48.528;8.078;2024-03-02T13:08:48;17.90;99.90
10083;DHT22;5080;48.528;8.078;2024-03-02T13:11:16;17.90;99.90
10083;DHT22;5080;48.528;8.078;2024-03-02T13:13:43;18.10;99.90
10083;DHT22;5080;48.528;8.078;2024-03-02T13:16:11;18.10;99.90
10083;DHT22;5080;48.528;8.078;2024-03-02T13:18:38;18.00;99.90
10083;DHT22;5080;48.528;8.078;2024-03-02T13:21:05;18.00;99.90
10083;DHT22;5080;48.528;8.078;2024-03-02T13:23:32;18.10;99.90
10083;DHT22;5080;48.528;8.078;2024-03-02T13:25:59;18.10;99.90
10083;DHT22;5080;48.528;8.078;2024-03-02T13:28:27;18.20;99.90
10083;DHT22;5080;48.528;8.078;2024-03-02T13:30:54;18.30;99.90
10083;DHT22;5080;48.528;8.078;2024-03-02T13:33:21;18.40;99.90
10083;DHT22;5080;48.528;8.078;2024-03-02T13:35:49;18.60;99.90
10083;DHT22;5080;48.528;8.078;2024-03-02T13:38:16;18.70;99.90
10083;DHT22;5080;48.528;8.078;2024-03-02T13:40:43;18.70;99.90
10083;DHT22;5080;48.528;8.078;2024-03-02T13:43:10;18.70;99.90
10083;DHT22;5080;48.528;8.078;2024-03-02T13:45:38;18.80;99.90
10083;DHT22;5080;48.528;8.078;2024-03-02T13:48:06;18.70;99.90
10083;DHT22;5080;48.528;8.078;2024-03-02T13:50:33;18.70;99.90
10083;DHT22;5080;48.528;8.078;2024-03-02T13:52:59;18.80;99.90
10083;DHT22;5080;48.528;8.078;2024-03-02T13:55:26;18.80;99.90
10083;DHT22;5080;48.528;8.078;2024-03-02T13:57:53;18.90;99.90
10083;DHT22;5080;48.528;8.078;2024-03-02T14:00:19;18.90;99.90
10083;DHT22;5080;48.528;8.078;2024-03-02T14:02:48;18.80;99.90
10083;DHT22;5080;48.528;8.078;2024-03-02T14:05:15;18.80;99.90
10083;DHT22;5080;48.528;8.078;2024-03-02T14:07:43;18.70;99.90
10083;DHT22;5080;48.528;8.078;2024-03-02T14:10:10;18.50;99.90
10083;DHT22;5080;48.528;8.078;2024-03-02T14:12:37;18.40;99.90
10083;DHT22;5080;48.528;8.078;2024-03-02T14:15:05;18.20;99.90
10083;DHT22;5080;48.528;8.078;2024-03-02T14:17:32;18.10;99.90
10083;DHT22;5080;48.528;8.078;2024-03-02T14:20:00;18.10;99.90
10083;DHT22;5080;48.528;8.078;2024-03-02T14:22:26;18.30;99.90
10083;DHT22;5080;48.528;8.078;2024-03-02T14:24:53;18.30;99.90
10083;DHT22;5080;48.528;8.078;2024-03-02T14:27:20;18.30;99.90
10083;DHT22;5080;48.528;8.078;2024-03-02T14:29:47;18.10;99.90
10083;DHT22;5080;48.528;8.078;2024-03-02T14:32:14;18.00;99.90
10083;DHT22;5080;48.528;8.078;2024-03-02T14:34:40;18.10;99.90
10083;DHT22;5080;48.528;8.078;2024-03-02T14:37:08;18.00;99.90
10083;DHT22;5080;48.528;8.078;2024-03-02T14:39:35;17.80;99.90
10083;DHT22;5080;48.528;8.078;2024-03-02T14:42:02;17.70;99.90
10083;DHT22;5080;48.528;8.078;2024-03-02T14:44:29;17.80;99.90
10083;DHT22;5080;48.528;8.078;2024-03-02T14:46:56;17.80;99.90
10083;DHT22;5080;48.528;8.078;2024-03-02T14:49:24;17.70;99.90
10083;DHT22;5080;48.528;8.078;2024-03-02T14:51:51;17.60;99.90
10083;DHT22;5080;48.528;8.078;2024-03-02T14:54:19;17.60;99.90
10083;DHT22;5080;48.528;8.078;2024-03-02T14:56:45;17.50;99.90
10083;DHT22;5080;48.528;8.078;2024-03-02T14:59:12;17.40;99.90
10083;DHT22;5080;48.528;8.078;2024-03-02T15:01:39;17.40;99.90
10083;DHT22;5080;48.528;8.078;2024-03-02T15:04:06;17.40;99.90
10083;DHT22;5080;48.528;8.078;2024-03-02T15:06:32;17.30;99.90
10083;DHT22;5080;48.528;8.078;2024-03-02T15:08:59;17.30;99.90
10083;DHT22;5080;48.528;8.078;2024-03-02T15:11:28;17.20;99.90
10083;DHT22;5080;48.528;8.078;2024-03-02T15:13:55;17.20;99.90
10083;DHT22;5080;48.528;8.078;2024-03-02T15:16:22;17.10;99.90
10083;DHT22;5080;48.528;8.078;2024-03-02T15:18:49;17.10;99.90
10083;DHT22;5080;48.528;8.078;2024-03-02T15:21:16;17.10;99.90
10083;DHT22;5080;48.528;8.078;2024-03-02T15:23:44;16.90;99.90
10083;DHT22;5080;48.528;8.078;2024-03-02T15:26:11;16.80;99.90
10083;DHT22;5080;48.528;8.078;2024-03-02T15:28:39;16.80;99.90
10083;DHT22;5080;48.528;8.078;2024-03-02T15:31:06;16.80;99.90
10083;DHT22;5080;48.528;8.078;2024-03-02T15:33:32;16.80;99.90
10083;DHT22;5080;48.528;8.078;2024-03-02T15:35:59;16.80;99.90
10083;DHT22;5080;48.528;8.078;2024-03-02T15:38:26;16.80;99.90
10083;DHT22;5080;48.528;8.078;2024-03-02T15:40:53;16.80;99.90
10083;DHT22;5080;48.528;8.078;2024-03-02T15:43:20;16.80;99.90
10083;DHT22;5080;48.528;8.078;2024-03-02T15:45:48;16.60;99.90
10083;DHT22;5080;48.528;8.078;2024-03-02T15:48:15;16.60;99.90
10083;DHT22;5080;48.528;8.078;2024-03-02T15:50:41;16.60;99.90
10083;DHT22;5080;48.528;8.078;2024-03-02T15:53:08;16.60;99.90
10083;DHT22;5080;48.528;8.078;2024-03-02T15:55:35;16.60;99.90
10083;DHT22;5080;48.528;8.078;2024-03-02T15:58:02;16.60;99.90